createdAt,value
2022-08-17T00:00:40.318Z,96726.63
2022-08-17T00:03:15.105Z,96728.72
2022-08-17T00:05:50.400Z,96725.00
2022-08-17T00:08:21.200Z,96728.50
2022-08-17T00:10:50.683Z,96729.75
2022-08-17T00:13:25.280Z,96717.25
2022-08-17T00:15:58.652Z,96714.78
2022-08-17T00:19:01.587Z,96725.91
2022-08-17T00:21:23.779Z,96729.34
2022-08-17T00:23:54.060Z,96726.66
2022-08-17T00:26:43.550Z,96725.66
2022-08-17T00:29:19.411Z,96732.84
2022-08-17T00:31:48.903Z,96723.78
2022-08-17T00:34:17.941Z,96723.38
2022-08-17T00:36:47.692Z,96712.03
2022-08-17T00:39:16.117Z,96706.06
2022-08-17T00:41:44.677Z,96709.81
2022-08-17T00:44:13.149Z,96711.25
2022-08-17T00:46:43.572Z,96706.94
2022-08-17T00:49:13.462Z,96707.97
2022-08-17T00:51:44.157Z,96706.13
2022-08-17T00:54:16.542Z,96702.59
2022-08-17T00:56:54.594Z,96705.72
2022-08-17T00:59:24.766Z,96699.94
2022-08-17T01:01:53.559Z,96696.88
2022-08-17T01:04:22.700Z,96700.38
2022-08-17T01:06:53.599Z,96707.59
2022-08-17T01:09:24.107Z,96703.09
2022-08-17T01:11:52.913Z,96702.88
2022-08-17T01:14:22.274Z,96697.31
2022-08-17T01:16:51.604Z,96698.13
2022-08-17T01:19:23.598Z,96700.00
2022-08-17T01:21:55.813Z,96707.22
2022-08-17T01:24:25.744Z,96705.97
2022-08-17T01:26:56.591Z,96694.19
2022-08-17T01:29:26.982Z,96698.56
2022-08-17T01:31:58.716Z,96693.38
2022-08-17T01:34:28.241Z,96689.69
2022-08-17T01:37:12.127Z,96696.53
2022-08-17T01:39:45.022Z,96706.41
2022-08-17T01:42:18.854Z,96698.78
2022-08-17T01:44:47.270Z,96694.66
2022-08-17T01:47:15.697Z,96693.22
2022-08-17T01:49:44.108Z,96697.94
2022-08-17T01:52:13.266Z,96694.69
2022-08-17T01:54:45.016Z,96694.06
2022-08-17T01:57:13.648Z,96689.13
2022-08-17T01:59:42.330Z,96692.63
2022-08-17T02:02:11.334Z,96687.69
2022-08-17T02:04:58.614Z,96691.19
2022-08-17T02:07:27.173Z,96686.66
2022-08-17T02:09:57.555Z,96684.19
2022-08-17T02:12:39.065Z,96682.34
2022-08-17T02:15:12.522Z,96686.69
2022-08-17T02:17:41.551Z,96680.94
2022-08-17T02:20:11.367Z,96678.28
2022-08-17T02:22:41.774Z,96681.34
2022-08-17T02:25:14.667Z,96671.88
2022-08-17T02:27:43.462Z,96665.28
2022-08-17T02:30:59.600Z,96666.13
2022-08-17T02:33:04.203Z,96660.75
2022-08-17T02:35:34.722Z,96676.00
2022-08-17T02:38:04.603Z,96671.91
2022-08-17T02:40:36.414Z,96675.59
2022-08-17T02:43:05.469Z,96672.31
2022-08-17T02:45:33.973Z,96673.94
2022-08-17T02:48:02.491Z,96667.97
2022-08-17T02:50:30.911Z,96668.81
2022-08-17T02:53:02.351Z,96655.81
2022-08-17T02:55:33.626Z,96658.50
2022-08-17T02:58:03.744Z,96662.00
2022-08-17T03:00:34.229Z,96656.66
2022-08-17T03:03:04.579Z,96653.16
2022-08-17T03:05:35.051Z,96653.34
2022-08-17T03:08:04.458Z,96656.84
2022-08-17T03:10:33.162Z,96658.91
2022-08-17T03:13:03.024Z,96647.38
2022-08-17T03:15:34.427Z,96654.59
2022-08-17T03:18:03.755Z,96654.16
2022-08-17T03:20:33.874Z,96656.63
2022-08-17T03:23:03.148Z,96658.09
2022-08-17T03:25:34.536Z,96652.09
2022-08-17T03:28:05.012Z,96650.88
2022-08-17T03:30:34.103Z,96654.38
2022-08-17T03:33:06.247Z,96655.63
2022-08-17T03:35:36.454Z,96654.78
2022-08-17T03:38:05.489Z,96655.41
2022-08-17T03:40:57.161Z,96650.44
2022-08-17T03:43:24.253Z,96657.47
2022-08-17T03:46:27.121Z,96657.88
2022-08-17T03:49:15.298Z,96656.22
2022-08-17T03:52:01.174Z,96660.53
2022-08-17T03:54:47.107Z,96660.97
2022-08-17T03:57:15.495Z,96665.06
2022-08-17T03:59:45.399Z,96665.28
2022-08-17T04:02:17.460Z,96668.16
2022-08-17T04:04:46.030Z,96664.47
2022-08-17T04:07:14.466Z,96667.13
2022-08-17T04:09:43.545Z,96670.03
2022-08-17T04:12:12.613Z,96679.09
2022-08-17T04:14:53.656Z,96681.56
2022-08-17T04:17:25.949Z,96682.16
2022-08-17T04:19:55.216Z,96682.16
2022-08-17T04:22:31.794Z,96683.81
2022-08-17T04:25:07.416Z,96680.94
2022-08-17T04:27:35.894Z,96683.19
2022-08-17T04:30:06.900Z,96681.56
2022-08-17T04:33:04.430Z,96678.47
2022-08-17T04:35:36.614Z,96683.81
2022-08-17T04:38:05.210Z,96685.06
2022-08-17T04:40:51.426Z,96688.75
2022-08-17T04:43:22.220Z,96683.41
2022-08-17T04:45:56.268Z,96690.19
2022-08-17T04:48:35.331Z,96679.28
2022-08-17T04:51:07.408Z,96687.91
2022-08-17T04:53:35.992Z,96690.81
2022-08-17T04:56:05.245Z,96703.34
2022-08-17T04:58:33.708Z,96695.53
2022-08-17T05:01:02.416Z,96709.31
2022-08-17T05:03:32.326Z,96714.06
2022-08-17T05:06:00.763Z,96714.06
2022-08-17T05:08:29.262Z,96719.84
2022-08-17T05:10:57.745Z,96719.84
2022-08-17T05:13:27.465Z,96719.63
2022-08-17T05:15:58.203Z,96718.59
2022-08-17T05:18:27.638Z,96722.28
2022-08-17T05:20:58.851Z,96730.50
2022-08-17T05:23:41.624Z,96716.50
2022-08-17T05:26:21.963Z,96715.06
2022-08-17T05:28:57.198Z,96708.69
2022-08-17T05:31:29.471Z,96698.19
2022-08-17T05:33:58.255Z,96694.28
2022-08-17T05:36:42.266Z,96706.03
2022-08-17T05:39:16.192Z,96704.78
2022-08-17T05:41:48.778Z,96714.06
2022-08-17T05:44:17.807Z,96713.00
2022-08-17T05:46:50.547Z,96710.34
2022-08-17T05:49:22.302Z,96713.44
2022-08-17T05:52:10.877Z,96705.59
2022-08-17T05:54:50.055Z,96704.72
2022-08-17T05:57:32.597Z,96711.09
2022-08-17T06:00:08.715Z,96702.25
2022-08-17T06:02:52.245Z,96709.31
2022-08-17T06:05:34.699Z,96711.78
2022-08-17T06:08:24.671Z,96709.31
2022-08-17T06:10:58.521Z,96720.00
2022-08-17T06:13:40.003Z,96722.69
2022-08-17T06:16:33.794Z,96727.81
2022-08-17T06:19:02.337Z,96725.75
2022-08-17T06:21:35.536Z,96724.09
2022-08-17T06:24:08.435Z,96731.53
2022-08-17T06:26:43.042Z,96728.84
2022-08-17T06:29:18.546Z,96729.28
2022-08-17T06:31:47.416Z,96732.16
2022-08-17T06:34:15.981Z,96736.09
2022-08-17T06:36:50.553Z,96732.38
2022-08-17T06:39:29.720Z,96734.25
2022-08-17T06:42:54.958Z,96738.38
2022-08-17T06:45:07.958Z,96736.91
2022-08-17T06:47:38.625Z,96742.88
2022-08-17T06:50:14.674Z,96741.44
2022-08-17T06:52:48.543Z,96744.34
2022-08-17T06:55:23.071Z,96736.31
2022-08-17T06:57:53.837Z,96740.22
2022-08-17T07:00:24.643Z,96742.47
2022-08-17T07:02:57.238Z,96734.03
2022-08-17T07:05:36.567Z,96741.03
2022-08-17T07:08:11.690Z,96746.81
2022-08-17T07:10:44.552Z,96752.38
2022-08-17T07:13:31.116Z,96763.50
2022-08-17T07:16:09.247Z,96757.13
2022-08-17T07:18:37.814Z,96755.47
2022-08-17T07:21:17.498Z,96763.09
2022-08-17T07:24:02.675Z,96767.00
2022-08-17T07:26:32.616Z,96777.72
2022-08-17T07:29:02.363Z,96773.63
2022-08-17T07:31:33.492Z,96771.56
2022-08-17T07:34:07.995Z,96764.97
2022-08-17T07:36:36.766Z,96773.25
2022-08-17T07:39:05.496Z,96755.94
2022-08-17T07:41:53.391Z,96754.09
2022-08-17T07:44:26.696Z,96754.50
2022-08-17T07:47:13.261Z,96761.09
2022-08-17T07:49:46.006Z,96766.25
2022-08-17T07:52:51.828Z,96767.50
2022-08-17T07:55:29.359Z,96766.25
2022-08-17T07:58:00.903Z,96765.03
2022-08-17T08:00:32.249Z,96774.25
2022-08-17T08:03:18.571Z,96774.25
2022-08-17T08:05:53.526Z,96772.41
2022-08-17T08:08:28.510Z,96762.09
2022-08-17T08:11:03.777Z,96776.09
2022-08-17T08:13:34.302Z,96781.03
2022-08-17T08:16:24.345Z,96784.34
2022-08-17T08:18:57.339Z,96787.44
2022-08-17T08:25:31.938Z,96797.13
2022-08-17T08:28:11.828Z,96802.06
2022-08-17T08:30:47.444Z,96793.81
2022-08-17T08:33:27.131Z,96788.88
2022-08-17T08:35:58.852Z,96798.75
2022-08-17T08:38:35.602Z,96786.97
2022-08-17T08:41:17.297Z,96787.19
2022-08-17T08:43:53.439Z,96787.19
2022-08-17T08:46:30.185Z,96783.69
2022-08-17T08:49:10.189Z,96783.41
2022-08-17T08:51:48.263Z,96773.91
2022-08-17T08:54:33.379Z,96775.31
2022-08-17T08:57:24.296Z,96775.88
2022-08-17T09:00:03.604Z,96768.00
2022-08-17T09:02:47.360Z,96761.84
2022-08-17T09:05:26.077Z,96778.75
2022-08-17T09:08:05.715Z,96770.47
2022-08-17T09:10:40.632Z,96770.22
2022-08-17T09:13:15.107Z,96772.50
2022-08-17T09:15:46.351Z,96756.34
2022-08-17T09:19:03.411Z,96756.63
2022-08-17T09:21:12.547Z,96758.34
2022-08-17T09:23:59.328Z,96758.50
2022-08-17T09:26:31.783Z,96769.41
2022-08-17T09:29:03.009Z,96759.44
2022-08-17T09:31:35.557Z,96750.53
2022-08-17T09:34:21.250Z,96755.84
2022-08-17T09:37:02.301Z,96738.28
2022-08-17T09:39:35.974Z,96734.50
2022-08-17T09:42:08.950Z,96742.34
2022-08-17T09:44:40.612Z,96742.72
2022-08-17T09:47:15.500Z,96741.06
2022-08-17T09:49:50.775Z,96745.06
2022-08-17T09:52:23.043Z,96747.16
2022-08-17T09:54:54.118Z,96751.88
2022-08-17T09:57:39.013Z,96755.09
2022-08-17T10:00:16.971Z,96751.56
2022-08-17T10:03:08.714Z,96745.88
2022-08-17T10:05:45.426Z,96738.94
2022-08-17T10:08:24.512Z,96742.03
2022-08-17T10:11:06.831Z,96750.69
2022-08-17T10:13:52.998Z,96744.31
2022-08-17T10:16:27.246Z,96744.16
2022-08-17T10:19:03.689Z,96743.94
2022-08-17T10:22:01.096Z,96750.53
2022-08-17T10:25:21.315Z,96736.03
2022-08-17T10:27:43.994Z,96731.50
2022-08-17T10:30:17.213Z,96721.53
2022-08-17T10:32:52.310Z,96729.16
2022-08-17T10:35:37.718Z,96725.84
2022-08-17T10:38:19.852Z,96723.38
2022-08-17T10:40:57.287Z,96712.34
2022-08-17T10:43:38.444Z,96719.69
2022-08-17T10:46:30.602Z,96719.97
2022-08-17T10:49:32.649Z,96728.56
2022-08-17T10:52:03.064Z,96721.44
2022-08-17T10:54:42.210Z,96714.88
2022-08-17T10:57:37.365Z,96727.28
2022-08-17T11:00:16.626Z,96719.59
2022-08-17T11:02:50.496Z,96717.88
2022-08-17T11:05:53.897Z,96726.84
2022-08-17T11:09:01.855Z,96740.75
2022-08-17T11:12:00.583Z,96739.97
2022-08-17T11:14:41.290Z,96735.88
2022-08-17T11:17:30.356Z,96742.94
2022-08-17T11:20:11.705Z,96740.75
2022-08-17T11:23:08.267Z,96739.16
2022-08-17T11:25:40.153Z,96736.13
2022-08-17T11:28:15.567Z,96730.66
2022-08-17T11:30:48.366Z,96727.66
2022-08-17T11:33:55.013Z,96736.94
2022-08-17T11:36:41.967Z,96731.19
2022-08-17T11:39:23.576Z,96734.63
2022-08-17T11:41:59.805Z,96724.56
2022-08-17T11:44:38.829Z,96718.25
2022-08-17T11:47:32.283Z,96714.84
2022-08-17T11:50:37.044Z,96721.38
2022-08-17T11:53:06.825Z,96715.03
2022-08-17T11:56:03.963Z,96711.88
2022-08-17T11:58:38.948Z,96708.16
2022-08-17T12:01:13.437Z,96709.91
2022-08-17T12:03:53.864Z,96715.53
2022-08-17T12:06:35.862Z,96724.22
2022-08-17T12:09:11.722Z,96725.75
2022-08-17T12:12:04.626Z,96721.88
2022-08-17T12:15:07.819Z,96723.06
2022-08-17T12:17:41.442Z,96718.72
2022-08-17T12:20:19.543Z,96714.91
2022-08-17T12:22:54.854Z,96717.06
2022-08-17T12:25:26.725Z,96734.31
2022-08-17T12:28:06.275Z,96734.00
2022-08-17T12:30:37.222Z,96720.63
2022-08-17T12:33:25.619Z,96724.59
2022-08-17T12:35:59.717Z,96719.31
2022-08-17T12:38:33.290Z,96716.16
2022-08-17T12:41:25.462Z,96713.53
2022-08-17T12:44:01.998Z,96707.81
2022-08-17T12:46:35.970Z,96706.50
2022-08-17T12:49:18.202Z,96705.63
2022-08-17T12:51:48.222Z,96704.81
2022-08-17T12:54:33.679Z,96699.81
2022-08-17T12:57:06.708Z,96702.84
2022-08-17T12:59:35.451Z,96704.25
2022-08-17T13:02:04.314Z,96703.50
2022-08-17T13:04:34.378Z,96703.50
2022-08-17T13:07:03.282Z,96704.38
2022-08-17T13:09:35.922Z,96703.25
2022-08-17T13:12:09.486Z,96697.66
2022-08-17T13:14:38.225Z,96693.09
2022-08-17T13:17:12.829Z,96687.94
2022-08-17T13:19:50.833Z,96696.22
2022-08-17T13:22:24.027Z,96679.41
2022-08-17T13:24:54.635Z,96681.31
2022-08-17T13:27:25.435Z,96681.09
2022-08-17T13:29:57.575Z,96673.63
2022-08-17T13:32:37.123Z,96673.91
2022-08-17T13:35:49.900Z,96677.25
2022-08-17T13:38:40.510Z,96680.09
2022-08-17T13:41:09.358Z,96678.56
2022-08-17T13:43:40.337Z,96670.69
2022-08-17T13:46:11.188Z,96668.59
2022-08-17T13:48:41.207Z,96667.91
2022-08-17T13:51:24.776Z,96657.63
2022-08-17T13:54:02.337Z,96664.63
2022-08-17T13:56:39.532Z,96664.72
2022-08-17T13:59:11.523Z,96656.63
2022-08-17T14:01:43.567Z,96651.91
2022-08-17T14:04:15.222Z,96644.06
2022-08-17T14:06:51.787Z,96644.19
2022-08-17T14:09:24.297Z,96645.19
2022-08-17T14:11:55.063Z,96638.72
2022-08-17T14:14:24.511Z,96650.03
2022-08-17T14:16:54.137Z,96650.19
2022-08-17T14:19:23.038Z,96654.41
2022-08-17T14:21:56.506Z,96645.25
2022-08-17T14:24:30.502Z,96644.19
2022-08-17T14:27:00.079Z,96642.06
2022-08-17T14:29:31.181Z,96630.22
2022-08-17T14:32:04.311Z,96635.13
2022-08-17T14:34:32.960Z,96629.22
2022-08-17T14:37:03.433Z,96629.22
2022-08-17T14:39:32.878Z,96625.09
2022-08-17T14:42:02.529Z,96612.91
2022-08-17T14:44:31.252Z,96606.56
2022-08-17T14:46:59.838Z,96605.53
2022-08-17T14:49:30.304Z,96613.22
2022-08-17T14:51:59.793Z,96610.28
2022-08-17T14:54:33.850Z,96604.22
2022-08-17T14:57:23.294Z,96593.84
2022-08-17T14:59:55.056Z,96589.28
2022-08-17T15:02:29.365Z,96588.44
2022-08-17T15:05:03.306Z,96577.41
2022-08-17T15:07:32.233Z,96578.47
2022-08-17T15:10:02.884Z,96580.69
2022-08-17T15:12:34.060Z,96581.50
2022-08-17T15:15:04.477Z,96591.47
2022-08-17T15:17:55.073Z,96593.13
2022-08-17T15:20:25.302Z,96587.28
2022-08-17T15:22:55.445Z,96583.03
2022-08-17T15:25:27.584Z,96591.69
2022-08-17T15:27:56.569Z,96594.50
2022-08-17T15:30:26.663Z,96600.47
2022-08-17T15:32:55.871Z,96590.91
2022-08-17T15:35:27.453Z,96592.47
2022-08-17T15:38:06.498Z,96599.16
2022-08-17T15:40:39.742Z,96610.78
2022-08-17T15:43:11.432Z,96599.59
2022-08-17T15:45:40.967Z,96608.50
2022-08-17T15:48:10.166Z,96603.03
2022-08-17T15:50:38.873Z,96607.28
2022-08-17T15:53:07.542Z,96605.78
2022-08-17T15:55:36.684Z,96612.84
2022-08-17T15:58:07.127Z,96614.81
2022-08-17T16:00:53.040Z,96622.44
2022-08-17T16:03:58.149Z,96612.25
2022-08-17T16:06:14.902Z,96617.50
2022-08-17T16:08:45.497Z,96621.81
2022-08-17T16:11:15.386Z,96619.88
2022-08-17T16:13:47.416Z,96613.16
2022-08-17T16:16:24.272Z,96616.09
2022-08-17T16:18:54.738Z,96612.59
2022-08-17T16:21:27.232Z,96612.31
2022-08-17T16:23:58.235Z,96609.91
2022-08-17T16:26:27.350Z,96608.50
2022-08-17T16:28:58.339Z,96603.59
2022-08-17T16:31:26.896Z,96599.91
2022-08-17T16:34:17.240Z,96607.09
2022-08-17T16:36:54.955Z,96611.78
2022-08-17T16:39:27.269Z,96612.22
2022-08-17T16:41:56.295Z,96608.81
2022-08-17T16:44:31.627Z,96601.38
2022-08-17T16:47:01.078Z,96597.28
2022-08-17T16:49:37.117Z,96597.75
2022-08-17T16:52:09.747Z,96608.25
2022-08-17T16:54:39.686Z,96594.75
2022-08-17T16:57:08.118Z,96596.63
2022-08-17T16:59:42.120Z,96597.59
2022-08-17T17:02:14.805Z,96591.25
2022-08-17T17:04:54.774Z,96581.56
2022-08-17T17:07:50.029Z,96585.66
2022-08-17T17:10:20.963Z,96589.25
2022-08-17T17:13:02.781Z,96583.53
2022-08-17T17:15:52.199Z,96581.81
2022-08-17T17:18:29.735Z,96580.25
2022-08-17T17:20:58.542Z,96585.81
2022-08-17T17:23:38.267Z,96593.00
2022-08-17T17:26:39.118Z,96590.72
2022-08-17T17:29:21.440Z,96584.75
2022-08-17T17:31:58.171Z,96577.53
2022-08-17T17:34:27.062Z,96583.19
2022-08-17T17:36:59.386Z,96577.53
2022-08-17T17:39:33.326Z,96581.22
2022-08-17T17:42:10.889Z,96576.00
2022-08-17T17:44:41.016Z,96581.63
2022-08-17T17:47:11.597Z,96576.81
2022-08-17T17:49:44.572Z,96577.63
2022-08-17T17:52:19.655Z,96574.59
2022-08-17T17:54:55.065Z,96569.69
2022-08-17T17:57:30.809Z,96565.59
2022-08-17T18:00:05.267Z,96561.53
2022-08-17T18:02:51.733Z,96562.25
2022-08-17T18:05:58.548Z,96560.94
2022-08-17T18:08:53.639Z,96561.19
2022-08-17T18:11:34.843Z,96565.19
2022-08-17T18:14:14.418Z,96555.72
2022-08-17T18:16:43.523Z,96559.72
2022-08-17T18:19:15.038Z,96559.97
2022-08-17T18:21:45.873Z,96555.63
2022-08-17T18:24:14.927Z,96560.44
2022-08-17T18:26:48.279Z,96553.41
2022-08-17T18:29:43.874Z,96559.28
2022-08-17T18:32:40.845Z,96562.25
2022-08-17T18:35:35.060Z,96561.66
2022-08-17T18:38:21.947Z,96558.75
2022-08-17T18:41:02.990Z,96568.16
2022-08-17T18:43:44.457Z,96571.00
2022-08-17T18:46:28.696Z,96573.38
2022-08-17T18:49:01.068Z,96563.63
2022-08-17T18:51:40.548Z,96574.91
2022-08-17T18:54:20.772Z,96566.97
2022-08-17T18:56:54.194Z,96579.88
2022-08-17T18:59:34.712Z,96573.22
2022-08-17T19:02:32.482Z,96576.09
2022-08-17T19:05:13.221Z,96575.84
2022-08-17T19:07:45.668Z,96577.16
2022-08-17T19:10:22.700Z,96569.06
2022-08-17T19:12:55.037Z,96566.75
2022-08-17T19:15:34.319Z,96572.22
2022-08-17T19:18:04.895Z,96576.22
2022-08-17T19:20:37.592Z,96571.06
2022-08-17T19:23:16.700Z,96579.16
2022-08-17T19:25:49.104Z,96575.88
2022-08-17T19:28:23.398Z,96569.31
2022-08-17T19:30:56.199Z,96568.38
2022-08-17T19:33:24.864Z,96561.69
2022-08-17T19:36:00.487Z,96554.56
2022-08-17T19:38:40.218Z,96558.66
2022-08-17T19:41:12.913Z,96545.63
2022-08-17T19:44:00.029Z,96550.09
2022-08-17T19:46:31.747Z,96557.03
2022-08-17T19:49:10.482Z,96557.03
2022-08-17T19:51:44.969Z,96562.44
2022-08-17T19:54:20.459Z,96563.03
2022-08-17T19:56:56.994Z,96571.59
2022-08-17T19:59:36.402Z,96581.09
2022-08-17T20:02:21.003Z,96579.56
2022-08-17T20:04:51.412Z,96581.66
2022-08-17T20:07:21.091Z,96588.13
2022-08-17T20:09:53.278Z,96593.97
2022-08-17T20:12:24.501Z,96588.81
2022-08-17T20:14:57.162Z,96595.03
2022-08-17T20:17:29.998Z,96592.81
2022-08-17T20:20:03.133Z,96599.84
2022-08-17T20:22:36.920Z,96601.13
2022-08-17T20:25:30.453Z,96614.28
2022-08-17T20:28:06.193Z,96612.41
2022-08-17T20:30:40.165Z,96612.97
2022-08-17T20:33:12.441Z,96601.38
2022-08-17T20:36:01.789Z,96608.06
2022-08-17T20:38:41.092Z,96599.97
2022-08-17T20:41:16.122Z,96591.41
2022-08-17T20:43:50.980Z,96592.81
2022-08-17T20:46:40.991Z,96591.88
2022-08-17T20:49:22.001Z,96590.84
2022-08-17T20:52:01.648Z,96582.97
2022-08-17T20:54:44.591Z,96582.97
2022-08-17T20:57:42.792Z,96576.78
2022-08-17T21:00:17.149Z,96580.28
2022-08-17T21:02:47.587Z,96564.34
2022-08-17T21:05:34.276Z,96560.25
2022-08-17T21:08:14.290Z,96560.25
2022-08-17T21:10:45.632Z,96566.94
2022-08-17T21:13:35.334Z,96565.53
2022-08-17T21:16:11.577Z,96571.75
2022-08-17T21:18:44.852Z,96571.97
2022-08-17T21:21:21.384Z,96564.13
2022-08-17T21:24:02.940Z,96556.84
2022-08-17T21:26:34.283Z,96551.25
2022-08-17T21:29:31.858Z,96547.50
2022-08-17T21:32:24.721Z,96553.34
2022-08-17T21:35:24.729Z,96564.94
2022-08-17T21:37:58.227Z,96559.78
2022-08-17T21:40:29.041Z,96572.44
2022-08-17T21:43:00.059Z,96575.38
2022-08-17T21:45:32.030Z,96572.69
2022-08-17T21:48:12.635Z,96576.66
2022-08-17T21:50:43.166Z,96582.28
2022-08-17T21:53:15.012Z,96578.53
2022-08-17T21:55:43.424Z,96585.78
2022-08-17T21:58:33.034Z,96587.09
2022-08-17T22:01:20.814Z,96586.25
2022-08-17T22:04:01.746Z,96594.59
2022-08-17T22:06:36.352Z,96598.91
2022-08-17T22:09:19.462Z,96601.84
2022-08-17T22:11:53.726Z,96604.53
2022-08-17T22:14:25.658Z,96609.94
2022-08-17T22:17:17.347Z,96612.84
2022-08-17T22:19:50.456Z,96608.06
2022-08-17T22:22:31.309Z,96605.25
2022-08-17T22:25:03.201Z,96611.44
2022-08-17T22:27:55.432Z,96607.34
2022-08-17T22:30:34.324Z,96618.59
2022-08-17T22:33:23.286Z,96633.44
2022-08-17T22:36:10.276Z,96654.97
2022-08-17T22:38:39.205Z,96669.38
2022-08-17T22:41:30.207Z,96678.97
2022-08-17T22:44:02.401Z,96682.47
2022-08-17T22:46:31.278Z,96682.78
2022-08-17T22:49:00.629Z,96676.59
2022-08-17T22:51:31.305Z,96691.38
2022-08-17T22:54:20.959Z,96694.66
2022-08-17T22:57:10.758Z,96705.28
2022-08-17T22:59:46.364Z,96711.34
2022-08-17T23:02:20.521Z,96729.97
2022-08-17T23:04:52.323Z,96750.97
2022-08-17T23:07:22.505Z,96776.81
2022-08-17T23:09:52.938Z,96798.06
2022-08-17T23:12:26.361Z,96817.94
2022-08-17T23:15:00.631Z,96822.28
2022-08-17T23:17:33.899Z,96814.19
2022-08-17T23:20:06.457Z,96807.22
2022-08-17T23:22:36.879Z,96799.97
2022-08-17T23:25:06.544Z,96796.03
2022-08-17T23:27:34.992Z,96808.06
2022-08-17T23:30:03.475Z,96832.72
2022-08-17T23:32:33.826Z,96847.59
2022-08-17T23:35:02.278Z,96839.91
2022-08-17T23:37:31.414Z,96860.25
2022-08-17T23:40:01.229Z,96861.91
2022-08-17T23:42:30.563Z,96856.50
2022-08-17T23:44:59.023Z,96856.50
2022-08-17T23:47:28.545Z,96871.38
2022-08-17T23:49:57.129Z,96882.72
2022-08-17T23:52:30.171Z,96875.09
2022-08-17T23:54:58.730Z,96873.91
2022-08-17T23:57:33.530Z,96880.13
